sensor_id;sensor_type;location;lat;lon;timestamp;temperature;humidity
65378;SHT31;51982;51.042;13.806;2023-08-21T00:01:49;26.51;80.47
65378;SHT31;51982;51.042;13.806;2023-08-21T00:04:14;26.52;80.48
65378;SHT31;51982;51.042;13.806;2023-08-21T00:06:39;26.45;80.44
65378;SHT31;51982;51.042;13.806;2023-08-21T00:09:04;26.27;80.62
65378;SHT31;51982;51.042;13.806;2023-08-21T00:11:30;26.33;80.69
65378;SHT31;51982;51.042;13.806;2023-08-21T00:13:55;26.30;80.72
65378;SHT31;51982;51.042;13.806;2023-08-21T00:16:20;26.26;80.72
65378;SHT31;51982;51.042;13.806;2023-08-21T00:18:46;26.24;80.65
65378;SHT31;51982;51.042;13.806;2023-08-21T00:21:11;26.27;80.67
65378;SHT31;51982;51.042;13.806;2023-08-21T00:23:36;26.26;80.71
65378;SHT31;51982;51.042;13.806;2023-08-21T00:26:02;26.24;80.65
65378;SHT31;51982;51.042;13.806;2023-08-21T00:28:27;26.14;80.50
65378;SHT31;51982;51.042;13.806;2023-08-21T00:31:02;26.13;80.44
65378;SHT31;51982;51.042;13.806;2023-08-21T00:33:28;25.90;80.29
65378;SHT31;51982;51.042;13.806;2023-08-21T00:35:53;25.96;80.35
65378;SHT31;51982;51.042;13.806;2023-08-21T00:38:18;26.00;80.27
65378;SHT31;51982;51.042;13.806;2023-08-21T00:40:44;25.97;80.26
65378;SHT31;51982;51.042;13.806;2023-08-21T00:43:09;25.93;80.20
65378;SHT31;51982;51.042;13.806;2023-08-21T00:45:34;25.98;80.26
65378;SHT31;51982;51.042;13.806;2023-08-21T00:47:59;26.03;80.26
65378;SHT31;51982;51.042;13.806;2023-08-21T00:50:25;26.04;80.23
65378;SHT31;51982;51.042;13.806;2023-08-21T00:52:50;26.06;80.00
65378;SHT31;51982;51.042;13.806;2023-08-21T00:55:16;26.04;80.05
65378;SHT31;51982;51.042;13.806;2023-08-21T00:57:42;26.03;80.14
65378;SHT31;51982;51.042;13.806;2023-08-21T01:00:08;26.03;80.07
65378;SHT31;51982;51.042;13.806;2023-08-21T01:02:35;26.03;80.16
65378;SHT31;51982;51.042;13.806;2023-08-21T01:05:00;26.03;80.19
65378;SHT31;51982;51.042;13.806;2023-08-21T01:07:26;26.04;80.13
65378;SHT31;51982;51.042;13.806;2023-08-21T01:10:14;26.03;80.12
65378;SHT31;51982;51.042;13.806;2023-08-21T01:12:50;26.00;80.03
65378;SHT31;51982;51.042;13.806;2023-08-21T01:15:21;26.00;80.20
65378;SHT31;51982;51.042;13.806;2023-08-21T01:17:47;26.00;80.30
65378;SHT31;51982;51.042;13.806;2023-08-21T01:20:13;25.98;80.22
65378;SHT31;51982;51.042;13.806;2023-08-21T01:22:40;25.94;80.20
65378;SHT31;51982;51.042;13.806;2023-08-21T01:25:07;25.84;80.25
65378;SHT31;51982;51.042;13.806;2023-08-21T01:27:34;25.87;80.29
65378;SHT31;51982;51.042;13.806;2023-08-21T01:30:00;25.89;80.34
65378;SHT31;51982;51.042;13.806;2023-08-21T01:32:27;25.92;80.33
65378;SHT31;51982;51.042;13.806;2023-08-21T01:34:55;25.86;80.45
65378;SHT31;51982;51.042;13.806;2023-08-21T01:37:21;25.74;80.68
65378;SHT31;51982;51.042;13.806;2023-08-21T01:39:47;25.70;80.88
65378;SHT31;51982;51.042;13.806;2023-08-21T01:42:12;25.72;80.83
65378;SHT31;51982;51.042;13.806;2023-08-21T01:44:37;25.76;80.88
65378;SHT31;51982;51.042;13.806;2023-08-21T01:47:03;25.74;80.88
65378;SHT31;51982;51.042;13.806;2023-08-21T01:49:28;25.74;80.83
65378;SHT31;51982;51.042;13.806;2023-08-21T01:51:53;25.74;80.86
65378;SHT31;51982;51.042;13.806;2023-08-21T01:54:19;25.74;80.85
65378;SHT31;51982;51.042;13.806;2023-08-21T01:56:44;25.67;80.91
65378;SHT31;51982;51.042;13.806;2023-08-21T01:59:09;25.66;80.97
65378;SHT31;51982;51.042;13.806;2023-08-21T02:01:34;25.66;80.99
65378;SHT31;51982;51.042;13.806;2023-08-21T02:04:00;25.67;81.04
65378;SHT31;51982;51.042;13.806;2023-08-21T02:06:25;25.65;81.07
65378;SHT31;51982;51.042;13.806;2023-08-21T02:08:50;25.67;81.13
65378;SHT31;51982;51.042;13.806;2023-08-21T02:11:15;25.65;81.13
65378;SHT31;51982;51.042;13.806;2023-08-21T02:13:40;25.63;81.13
65378;SHT31;51982;51.042;13.806;2023-08-21T02:16:06;25.61;81.14
65378;SHT31;51982;51.042;13.806;2023-08-21T02:18:31;25.61;81.22
65378;SHT31;51982;51.042;13.806;2023-08-21T02:20:57;25.58;81.22
65378;SHT31;51982;51.042;13.806;2023-08-21T02:23:22;25.55;81.17
65378;SHT31;51982;51.042;13.806;2023-08-21T02:25:49;25.53;81.21
65378;SHT31;51982;51.042;13.806;2023-08-21T02:28:14;25.50;81.16
65378;SHT31;51982;51.042;13.806;2023-08-21T02:30:40;25.49;81.22
65378;SHT31;51982;51.042;13.806;2023-08-21T02:33:06;25.45;81.21
65378;SHT31;51982;51.042;13.806;2023-08-21T02:35:31;25.46;81.21
65378;SHT31;51982;51.042;13.806;2023-08-21T02:37:56;25.43;81.23
65378;SHT31;51982;51.042;13.806;2023-08-21T02:40:22;25.38;81.26
65378;SHT31;51982;51.042;13.806;2023-08-21T02:42:47;25.36;81.22
65378;SHT31;51982;51.042;13.806;2023-08-21T02:45:12;25.38;81.25
65378;SHT31;51982;51.042;13.806;2023-08-21T02:47:38;25.33;80.95
65378;SHT31;51982;51.042;13.806;2023-08-21T02:50:05;25.31;81.07
65378;SHT31;51982;51.042;13.806;2023-08-21T02:52:31;25.29;81.11
65378;SHT31;51982;51.042;13.806;2023-08-21T02:54:57;25.31;81.10
65378;SHT31;51982;51.042;13.806;2023-08-21T02:57:23;25.26;81.02
65378;SHT31;51982;51.042;13.806;2023-08-21T02:59:49;25.22;80.81
65378;SHT31;51982;51.042;13.806;2023-08-21T03:02:14;25.21;80.86
65378;SHT31;51982;51.042;13.806;2023-08-21T03:04:39;25.19;80.79
65378;SHT31;51982;51.042;13.806;2023-08-21T03:07:04;25.19;80.76
65378;SHT31;51982;51.042;13.806;2023-08-21T03:09:30;25.19;80.81
65378;SHT31;51982;51.042;13.806;2023-08-21T03:11:55;25.18;80.86
65378;SHT31;51982;51.042;13.806;2023-08-21T03:14:20;25.15;80.92
65378;SHT31;51982;51.042;13.806;2023-08-21T03:16:45;25.15;80.93
65378;SHT31;51982;51.042;13.806;2023-08-21T03:19:11;25.14;80.92
65378;SHT31;51982;51.042;13.806;2023-08-21T03:21:36;25.08;81.00
65378;SHT31;51982;51.042;13.806;2023-08-21T03:24:01;25.07;81.05
65378;SHT31;51982;51.042;13.806;2023-08-21T03:26:26;25.07;81.02
65378;SHT31;51982;51.042;13.806;2023-08-21T03:28:52;25.08;81.04
65378;SHT31;51982;51.042;13.806;2023-08-21T03:31:17;25.08;81.05
65378;SHT31;51982;51.042;13.806;2023-08-21T03:33:42;25.11;81.01
65378;SHT31;51982;51.042;13.806;2023-08-21T03:36:08;25.16;80.97
65378;SHT31;51982;51.042;13.806;2023-08-21T03:38:33;25.15;80.94
65378;SHT31;51982;51.042;13.806;2023-08-21T03:40:59;25.14;81.00
65378;SHT31;51982;51.042;13.806;2023-08-21T03:43:24;25.14;81.05
65378;SHT31;51982;51.042;13.806;2023-08-21T03:45:50;25.11;80.95
65378;SHT31;51982;51.042;13.806;2023-08-21T03:48:15;25.12;80.95
65378;SHT31;51982;51.042;13.806;2023-08-21T03:50:40;25.11;80.95
65378;SHT31;51982;51.042;13.806;2023-08-21T03:53:05;25.04;81.00
65378;SHT31;51982;51.042;13.806;2023-08-21T03:55:31;24.95;81.05
65378;SHT31;51982;51.042;13.806;2023-08-21T03:57:56;24.95;81.04
65378;SHT31;51982;51.042;13.806;2023-08-21T04:00:21;24.98;81.02
65378;SHT31;51982;51.042;13.806;2023-08-21T04:02:46;25.01;81.04
65378;SHT31;51982;51.042;13.806;2023-08-21T04:05:12;24.99;81.04
65378;SHT31;51982;51.042;13.806;2023-08-21T04:07:37;24.99;81.02
65378;SHT31;51982;51.042;13.806;2023-08-21T04:10:03;24.95;81.03
65378;SHT31;51982;51.042;13.806;2023-08-21T04:12:28;24.94;81.00
65378;SHT31;51982;51.042;13.806;2023-08-21T04:14:54;24.94;81.10
65378;SHT31;51982;51.042;13.806;2023-08-21T04:17:23;24.96;81.02
65378;SHT31;51982;51.042;13.806;2023-08-21T04:19:49;24.95;81.10
65378;SHT31;51982;51.042;13.806;2023-08-21T04:22:14;24.95;81.10
65378;SHT31;51982;51.042;13.806;2023-08-21T04:24:41;24.92;81.13
65378;SHT31;51982;51.042;13.806;2023-08-21T04:27:06;24.92;81.15
65378;SHT31;51982;51.042;13.806;2023-08-21T04:29:31;24.94;81.23
65378;SHT31;51982;51.042;13.806;2023-08-21T04:31:57;24.96;81.26
65378;SHT31;51982;51.042;13.806;2023-08-21T04:34:22;24.92;81.37
65378;SHT31;51982;51.042;13.806;2023-08-21T04:36:47;24.92;81.40
65378;SHT31;51982;51.042;13.806;2023-08-21T04:39:14;24.92;81.43
65378;SHT31;51982;51.042;13.806;2023-08-21T04:41:40;24.91;81.46
65378;SHT31;51982;51.042;13.806;2023-08-21T04:44:05;24.90;81.48
65378;SHT31;51982;51.042;13.806;2023-08-21T04:46:31;24.88;81.48
65378;SHT31;51982;51.042;13.806;2023-08-21T04:48:56;24.90;81.52
65378;SHT31;51982;51.042;13.806;2023-08-21T04:51:21;24.90;81.50
65378;SHT31;51982;51.042;13.806;2023-08-21T04:53:46;24.88;81.63
65378;SHT31;51982;51.042;13.806;2023-08-21T04:56:12;24.87;81.65
65378;SHT31;51982;51.042;13.806;2023-08-21T04:58:37;24.85;81.66
65378;SHT31;51982;51.042;13.806;2023-08-21T05:01:04;24.84;81.63
65378;SHT31;51982;51.042;13.806;2023-08-21T05:03:30;24.84;81.72
65378;SHT31;51982;51.042;13.806;2023-08-21T05:05:56;24.85;81.72
65378;SHT31;51982;51.042;13.806;2023-08-21T05:08:22;24.85;81.62
65378;SHT31;51982;51.042;13.806;2023-08-21T05:10:48;24.85;81.62
65378;SHT31;51982;51.042;13.806;2023-08-21T05:13:13;24.85;81.62
65378;SHT31;51982;51.042;13.806;2023-08-21T05:15:43;24.84;81.57
65378;SHT31;51982;51.042;13.806;2023-08-21T05:18:08;24.85;81.54
65378;SHT31;51982;51.042;13.806;2023-08-21T05:20:34;24.85;81.56
65378;SHT31;51982;51.042;13.806;2023-08-21T05:22:59;24.87;81.60
65378;SHT31;51982;51.042;13.806;2023-08-21T05:25:24;24.87;81.64
65378;SHT31;51982;51.042;13.806;2023-08-21T05:27:49;24.88;81.65
65378;SHT31;51982;51.042;13.806;2023-08-21T05:30:15;24.87;81.67
65378;SHT31;51982;51.042;13.806;2023-08-21T05:32:40;24.87;81.71
65378;SHT31;51982;51.042;13.806;2023-08-21T05:35:05;24.85;81.71
65378;SHT31;51982;51.042;13.806;2023-08-21T05:37:31;24.84;81.81
65378;SHT31;51982;51.042;13.806;2023-08-21T05:39:56;24.87;81.84
65378;SHT31;51982;51.042;13.806;2023-08-21T05:42:21;24.88;81.86
65378;SHT31;51982;51.042;13.806;2023-08-21T05:44:47;24.87;81.90
65378;SHT31;51982;51.042;13.806;2023-08-21T05:47:12;24.90;81.92
65378;SHT31;51982;51.042;13.806;2023-08-21T05:49:37;24.91;82.01
65378;SHT31;51982;51.042;13.806;2023-08-21T05:52:03;24.85;81.98
65378;SHT31;51982;51.042;13.806;2023-08-21T05:54:28;24.91;81.97
65378;SHT31;51982;51.042;13.806;2023-08-21T05:56:55;24.92;82.01
65378;SHT31;51982;51.042;13.806;2023-08-21T05:59:29;24.94;81.89
65378;SHT31;51982;51.042;13.806;2023-08-21T06:01:55;24.95;81.96
65378;SHT31;51982;51.042;13.806;2023-08-21T06:04:20;24.92;81.95
65378;SHT31;51982;51.042;13.806;2023-08-21T06:06:45;24.90;81.96
65378;SHT31;51982;51.042;13.806;2023-08-21T06:09:13;24.94;82.02
65378;SHT31;51982;51.042;13.806;2023-08-21T06:11:38;24.91;82.02
65378;SHT31;51982;51.042;13.806;2023-08-21T06:14:04;24.92;82.00
65378;SHT31;51982;51.042;13.806;2023-08-21T06:16:29;24.98;82.00
65378;SHT31;51982;51.042;13.806;2023-08-21T06:18:54;24.99;82.02
65378;SHT31;51982;51.042;13.806;2023-08-21T06:21:20;25.04;82.04
65378;SHT31;51982;51.042;13.806;2023-08-21T06:23:45;25.04;82.02
65378;SHT31;51982;51.042;13.806;2023-08-21T06:26:10;25.07;82.09
65378;SHT31;51982;51.042;13.806;2023-08-21T06:28:35;25.10;82.03
65378;SHT31;51982;51.042;13.806;2023-08-21T06:31:00;25.05;81.95
65378;SHT31;51982;51.042;13.806;2023-08-21T06:33:32;25.10;81.92
65378;SHT31;51982;51.042;13.806;2023-08-21T06:35:57;25.16;81.83
65378;SHT31;51982;51.042;13.806;2023-08-21T06:38:23;25.32;81.77
65378;SHT31;51982;51.042;13.806;2023-08-21T06:40:48;25.42;81.65
65378;SHT31;51982;51.042;13.806;2023-08-21T06:43:13;25.47;81.44
65378;SHT31;51982;51.042;13.806;2023-08-21T06:45:38;25.42;81.17
65378;SHT31;51982;51.042;13.806;2023-08-21T06:48:04;25.43;81.23
65378;SHT31;51982;51.042;13.806;2023-08-21T06:50:30;25.50;81.12
65378;SHT31;51982;51.042;13.806;2023-08-21T06:52:55;25.63;81.12
65378;SHT31;51982;51.042;13.806;2023-08-21T06:55:20;25.69;80.94
65378;SHT31;51982;51.042;13.806;2023-08-21T06:57:46;25.70;80.99
65378;SHT31;51982;51.042;13.806;2023-08-21T07:00:11;25.76;80.96
65378;SHT31;51982;51.042;13.806;2023-08-21T07:02:37;25.76;80.98
65378;SHT31;51982;51.042;13.806;2023-08-21T07:05:02;25.77;80.96
65378;SHT31;51982;51.042;13.806;2023-08-21T07:07:28;25.77;80.97
65378;SHT31;51982;51.042;13.806;2023-08-21T07:09:53;25.77;80.91
65378;SHT31;51982;51.042;13.806;2023-08-21T07:12:18;25.87;80.95
65378;SHT31;51982;51.042;13.806;2023-08-21T07:14:44;25.94;80.83
65378;SHT31;51982;51.042;13.806;2023-08-21T07:17:09;26.04;80.68
65378;SHT31;51982;51.042;13.806;2023-08-21T07:19:34;26.12;80.66
65378;SHT31;51982;51.042;13.806;2023-08-21T07:21:59;26.20;80.44
65378;SHT31;51982;51.042;13.806;2023-08-21T07:24:25;26.20;80.43
65378;SHT31;51982;51.042;13.806;2023-08-21T07:26:50;26.26;80.41
65378;SHT31;51982;51.042;13.806;2023-08-21T07:29:15;26.27;80.39
65378;SHT31;51982;51.042;13.806;2023-08-21T07:31:40;26.36;80.45
65378;SHT31;51982;51.042;13.806;2023-08-21T07:34:06;26.43;80.28
65378;SHT31;51982;51.042;13.806;2023-08-21T07:36:32;26.41;80.17
65378;SHT31;51982;51.042;13.806;2023-08-21T07:38:57;26.41;80.22
65378;SHT31;51982;51.042;13.806;2023-08-21T07:41:22;26.43;80.33
65378;SHT31;51982;51.042;13.806;2023-08-21T07:43:48;26.40;80.23
65378;SHT31;51982;51.042;13.806;2023-08-21T07:46:13;26.43;80.30
65378;SHT31;51982;51.042;13.806;2023-08-21T07:48:41;26.41;80.37
65378;SHT31;51982;51.042;13.806;2023-08-21T07:51:07;26.45;80.16
65378;SHT31;51982;51.042;13.806;2023-08-21T07:53:32;26.45;80.16
65378;SHT31;51982;51.042;13.806;2023-08-21T07:55:59;26.43;80.14
65378;SHT31;51982;51.042;13.806;2023-08-21T07:58:25;26.44;80.11
65378;SHT31;51982;51.042;13.806;2023-08-21T08:00:50;26.38;80.06
65378;SHT31;51982;51.042;13.806;2023-08-21T08:03:15;26.44;80.07
65378;SHT31;51982;51.042;13.806;2023-08-21T08:05:41;26.47;80.35
65378;SHT31;51982;51.042;13.806;2023-08-21T08:08:07;26.52;80.22
65378;SHT31;51982;51.042;13.806;2023-08-21T08:10:32;26.54;80.06
65378;SHT31;51982;51.042;13.806;2023-08-21T08:12:58;26.54;80.09
65378;SHT31;51982;51.042;13.806;2023-08-21T08:15:23;26.47;80.26
65378;SHT31;51982;51.042;13.806;2023-08-21T08:17:48;26.52;80.26
65378;SHT31;51982;51.042;13.806;2023-08-21T08:20:18;26.58;80.31
65378;SHT31;51982;51.042;13.806;2023-08-21T08:22:44;26.61;80.41
65378;SHT31;51982;51.042;13.806;2023-08-21T08:25:09;26.62;80.47
65378;SHT31;51982;51.042;13.806;2023-08-21T08:27:35;26.65;80.43
65378;SHT31;51982;51.042;13.806;2023-08-21T08:30:00;26.68;80.44
65378;SHT31;51982;51.042;13.806;2023-08-21T08:32:26;26.72;80.39
65378;SHT31;51982;51.042;13.806;2023-08-21T08:34:52;26.71;80.43
65378;SHT31;51982;51.042;13.806;2023-08-21T08:37:18;26.78;80.26
65378;SHT31;51982;51.042;13.806;2023-08-21T08:39:45;26.79;80.26
65378;SHT31;51982;51.042;13.806;2023-08-21T08:42:10;26.84;80.25
65378;SHT31;51982;51.042;13.806;2023-08-21T08:44:36;26.88;80.36
65378;SHT31;51982;51.042;13.806;2023-08-21T08:47:03;26.89;80.51
65378;SHT31;51982;51.042;13.806;2023-08-21T08:49:30;26.95;80.50
65378;SHT31;51982;51.042;13.806;2023-08-21T08:51:55;26.99;80.50
65378;SHT31;51982;51.042;13.806;2023-08-21T08:54:22;26.99;80.46
65378;SHT31;51982;51.042;13.806;2023-08-21T08:56:47;27.00;80.56
65378;SHT31;51982;51.042;13.806;2023-08-21T08:59:13;27.06;80.54
65378;SHT31;51982;51.042;13.806;2023-08-21T09:01:40;27.08;80.60
65378;SHT31;51982;51.042;13.806;2023-08-21T09:04:05;27.08;80.53
65378;SHT31;51982;51.042;13.806;2023-08-21T09:06:32;27.09;80.52
65378;SHT31;51982;51.042;13.806;2023-08-21T09:08:57;27.12;80.63
65378;SHT31;51982;51.042;13.806;2023-08-21T09:11:23;27.12;80.61
65378;SHT31;51982;51.042;13.806;2023-08-21T09:13:50;27.18;80.45
65378;SHT31;51982;51.042;13.806;2023-08-21T09:16:17;27.23;80.36
65378;SHT31;51982;51.042;13.806;2023-08-21T09:19:02;27.28;80.22
65378;SHT31;51982;51.042;13.806;2023-08-21T09:21:28;27.39;80.30
65378;SHT31;51982;51.042;13.806;2023-08-21T09:23:59;27.50;80.17
65378;SHT31;51982;51.042;13.806;2023-08-21T09:26:25;27.51;79.76
65378;SHT31;51982;51.042;13.806;2023-08-21T09:28:51;27.60;79.61
65378;SHT31;51982;51.042;13.806;2023-08-21T09:31:29;27.63;79.51
65378;SHT31;51982;51.042;13.806;2023-08-21T09:33:59;27.70;79.36
65378;SHT31;51982;51.042;13.806;2023-08-21T09:36:26;27.80;79.35
65378;SHT31;51982;51.042;13.806;2023-08-21T09:38:51;27.87;79.31
65378;SHT31;51982;51.042;13.806;2023-08-21T09:41:20;27.94;79.30
65378;SHT31;51982;51.042;13.806;2023-08-21T09:43:46;27.98;79.22
65378;SHT31;51982;51.042;13.806;2023-08-21T09:46:14;28.00;79.06
65378;SHT31;51982;51.042;13.806;2023-08-21T09:48:41;28.04;79.06
65378;SHT31;51982;51.042;13.806;2023-08-21T09:51:07;28.07;78.88
65378;SHT31;51982;51.042;13.806;2023-08-21T09:53:32;28.07;78.71
65378;SHT31;51982;51.042;13.806;2023-08-21T09:56:00;28.04;78.67
65378;SHT31;51982;51.042;13.806;2023-08-21T09:58:28;28.02;78.42
65378;SHT31;51982;51.042;13.806;2023-08-21T10:00:58;27.94;77.89
65378;SHT31;51982;51.042;13.806;2023-08-21T10:03:23;27.96;77.77
65378;SHT31;51982;51.042;13.806;2023-08-21T10:05:49;27.97;77.78
65378;SHT31;51982;51.042;13.806;2023-08-21T10:08:16;27.93;76.98
65378;SHT31;51982;51.042;13.806;2023-08-21T10:10:43;27.97;76.50
65378;SHT31;51982;51.042;13.806;2023-08-21T10:13:09;28.00;76.39
65378;SHT31;51982;51.042;13.806;2023-08-21T10:15:36;28.00;76.22
65378;SHT31;51982;51.042;13.806;2023-08-21T10:18:19;28.00;74.98
65378;SHT31;51982;51.042;13.806;2023-08-21T10:20:45;28.00;74.67
65378;SHT31;51982;51.042;13.806;2023-08-21T10:23:23;28.01;74.58
65378;SHT31;51982;51.042;13.806;2023-08-21T10:25:54;28.04;74.69
65378;SHT31;51982;51.042;13.806;2023-08-21T10:28:20;28.07;74.65
65378;SHT31;51982;51.042;13.806;2023-08-21T10:30:47;28.12;74.62
65378;SHT31;51982;51.042;13.806;2023-08-21T10:33:13;28.15;74.28
65378;SHT31;51982;51.042;13.806;2023-08-21T10:35:38;28.22;74.52
65378;SHT31;51982;51.042;13.806;2023-08-21T10:38:18;28.20;73.18
65378;SHT31;51982;51.042;13.806;2023-08-21T10:41:06;28.28;72.79
65378;SHT31;51982;51.042;13.806;2023-08-21T10:43:41;28.29;73.26
65378;SHT31;51982;51.042;13.806;2023-08-21T10:46:11;28.29;73.21
65378;SHT31;51982;51.042;13.806;2023-08-21T10:48:38;28.27;73.48
65378;SHT31;51982;51.042;13.806;2023-08-21T10:51:05;28.28;73.53
65378;SHT31;51982;51.042;13.806;2023-08-21T10:53:31;28.28;73.46
65378;SHT31;51982;51.042;13.806;2023-08-21T10:56:01;28.29;73.51
65378;SHT31;51982;51.042;13.806;2023-08-21T10:58:26;28.28;73.41
65378;SHT31;51982;51.042;13.806;2023-08-21T11:01:01;28.27;73.24
65378;SHT31;51982;51.042;13.806;2023-08-21T11:03:26;28.29;73.06
65378;SHT31;51982;51.042;13.806;2023-08-21T11:06:05;28.31;72.87
65378;SHT31;51982;51.042;13.806;2023-08-21T11:08:32;28.34;73.38
65378;SHT31;51982;51.042;13.806;2023-08-21T11:10:58;28.35;73.29
65378;SHT31;51982;51.042;13.806;2023-08-21T11:13:24;28.40;72.94
65378;SHT31;51982;51.042;13.806;2023-08-21T11:15:57;28.42;72.26
65378;SHT31;51982;51.042;13.806;2023-08-21T11:18:32;28.45;72.47
65378;SHT31;51982;51.042;13.806;2023-08-21T11:21:08;28.48;72.24
65378;SHT31;51982;51.042;13.806;2023-08-21T11:23:36;28.52;72.72
65378;SHT31;51982;51.042;13.806;2023-08-21T11:26:02;28.53;72.58
65378;SHT31;51982;51.042;13.806;2023-08-21T11:28:29;28.53;72.85
65378;SHT31;51982;51.042;13.806;2023-08-21T11:30:56;28.58;72.36
65378;SHT31;51982;51.042;13.806;2023-08-21T11:33:21;28.59;72.40
65378;SHT31;51982;51.042;13.806;2023-08-21T11:35:47;28.62;72.47
65378;SHT31;51982;51.042;13.806;2023-08-21T11:38:17;28.56;71.70
65378;SHT31;51982;51.042;13.806;2023-08-21T11:40:54;28.62;72.05
65378;SHT31;51982;51.042;13.806;2023-08-21T11:43:19;28.61;72.44
65378;SHT31;51982;51.042;13.806;2023-08-21T11:45:48;28.58;72.35
65378;SHT31;51982;51.042;13.806;2023-08-21T11:48:13;28.61;72.31
65378;SHT31;51982;51.042;13.806;2023-08-21T11:50:39;28.65;72.34
65378;SHT31;51982;51.042;13.806;2023-08-21T11:53:04;28.63;72.21
65378;SHT31;51982;51.042;13.806;2023-08-21T11:55:31;28.68;72.29
65378;SHT31;51982;51.042;13.806;2023-08-21T11:57:56;28.66;72.26
65378;SHT31;51982;51.042;13.806;2023-08-21T12:00:27;28.71;71.89
65378;SHT31;51982;51.042;13.806;2023-08-21T12:02:57;28.71;71.65
65378;SHT31;51982;51.042;13.806;2023-08-21T12:05:23;28.75;71.30
65378;SHT31;51982;51.042;13.806;2023-08-21T12:07:49;28.78;71.43
65378;SHT31;51982;51.042;13.806;2023-08-21T12:10:14;28.76;71.37
65378;SHT31;51982;51.042;13.806;2023-08-21T12:12:39;28.80;71.33
65378;SHT31;51982;51.042;13.806;2023-08-21T12:15:05;28.82;71.33
65378;SHT31;51982;51.042;13.806;2023-08-21T12:17:31;28.83;71.24
65378;SHT31;51982;51.042;13.806;2023-08-21T12:19:56;28.88;71.29
65378;SHT31;51982;51.042;13.806;2023-08-21T12:22:21;28.89;71.43
65378;SHT31;51982;51.042;13.806;2023-08-21T12:24:46;28.91;71.59
65378;SHT31;51982;51.042;13.806;2023-08-21T12:27:12;28.98;71.50
65378;SHT31;51982;51.042;13.806;2023-08-21T12:29:37;29.02;71.49
65378;SHT31;51982;51.042;13.806;2023-08-21T12:32:02;29.06;71.56
65378;SHT31;51982;51.042;13.806;2023-08-21T12:34:28;29.07;71.42
65378;SHT31;51982;51.042;13.806;2023-08-21T12:36:53;29.10;71.03
65378;SHT31;51982;51.042;13.806;2023-08-21T12:39:18;29.13;71.21
65378;SHT31;51982;51.042;13.806;2023-08-21T12:41:44;29.16;70.87
65378;SHT31;51982;51.042;13.806;2023-08-21T12:44:09;29.19;71.26
65378;SHT31;51982;51.042;13.806;2023-08-21T12:46:35;29.19;71.37
65378;SHT31;51982;51.042;13.806;2023-08-21T12:49:01;29.22;71.47
65378;SHT31;51982;51.042;13.806;2023-08-21T12:51:27;29.26;71.49
65378;SHT31;51982;51.042;13.806;2023-08-21T12:53:53;29.24;71.24
65378;SHT31;51982;51.042;13.806;2023-08-21T12:56:18;29.26;70.95
65378;SHT31;51982;51.042;13.806;2023-08-21T12:58:43;29.30;71.22
65378;SHT31;51982;51.042;13.806;2023-08-21T13:01:09;29.29;71.02
65378;SHT31;51982;51.042;13.806;2023-08-21T13:03:34;29.30;71.26
65378;SHT31;51982;51.042;13.806;2023-08-21T13:05:59;29.30;70.99
65378;SHT31;51982;51.042;13.806;2023-08-21T13:08:25;29.33;70.99
65378;SHT31;51982;51.042;13.806;2023-08-21T13:10:50;29.33;71.19
65378;SHT31;51982;51.042;13.806;2023-08-21T13:13:15;29.33;70.96
65378;SHT31;51982;51.042;13.806;2023-08-21T13:15:41;29.34;70.71
65378;SHT31;51982;51.042;13.806;2023-08-21T13:18:09;29.29;70.30
65378;SHT31;51982;51.042;13.806;2023-08-21T13:20:34;29.36;70.30
65378;SHT31;51982;51.042;13.806;2023-08-21T13:23:00;29.37;70.39
65378;SHT31;51982;51.042;13.806;2023-08-21T13:25:25;29.37;70.49
65378;SHT31;51982;51.042;13.806;2023-08-21T13:27:51;29.34;70.19
65378;SHT31;51982;51.042;13.806;2023-08-21T13:30:17;29.31;69.95
65378;SHT31;51982;51.042;13.806;2023-08-21T13:32:43;29.31;70.40
65378;SHT31;51982;51.042;13.806;2023-08-21T13:35:08;29.30;69.66
65378;SHT31;51982;51.042;13.806;2023-08-21T13:37:35;29.36;69.38
65378;SHT31;51982;51.042;13.806;2023-08-21T13:40:01;29.36;69.32
65378;SHT31;51982;51.042;13.806;2023-08-21T13:42:34;29.37;69.13
65378;SHT31;51982;51.042;13.806;2023-08-21T13:45:02;29.37;69.30
65378;SHT31;51982;51.042;13.806;2023-08-21T13:47:28;29.37;68.70
65378;SHT31;51982;51.042;13.806;2023-08-21T13:49:53;29.36;69.40
65378;SHT31;51982;51.042;13.806;2023-08-21T13:52:19;29.42;69.58
65378;SHT31;51982;51.042;13.806;2023-08-21T13:54:44;29.43;69.77
65378;SHT31;51982;51.042;13.806;2023-08-21T13:57:09;29.44;69.56
65378;SHT31;51982;51.042;13.806;2023-08-21T13:59:34;29.42;69.39
65378;SHT31;51982;51.042;13.806;2023-08-21T14:02:00;29.43;69.45
65378;SHT31;51982;51.042;13.806;2023-08-21T14:04:25;29.46;69.44
65378;SHT31;51982;51.042;13.806;2023-08-21T14:06:50;29.42;69.35
65378;SHT31;51982;51.042;13.806;2023-08-21T14:09:15;29.37;69.25
65378;SHT31;51982;51.042;13.806;2023-08-21T14:11:40;29.34;69.23
65378;SHT31;51982;51.042;13.806;2023-08-21T14:14:08;29.33;68.83
65378;SHT31;51982;51.042;13.806;2023-08-21T14:16:33;29.31;68.98
65378;SHT31;51982;51.042;13.806;2023-08-21T14:18:59;29.29;69.27
65378;SHT31;51982;51.042;13.806;2023-08-21T14:21:24;29.34;69.43
65378;SHT31;51982;51.042;13.806;2023-08-21T14:23:49;29.38;69.43
65378;SHT31;51982;51.042;13.806;2023-08-21T14:26:14;29.46;68.83
65378;SHT31;51982;51.042;13.806;2023-08-21T14:28:39;29.49;68.29
65378;SHT31;51982;51.042;13.806;2023-08-21T14:31:05;29.47;68.26
65378;SHT31;51982;51.042;13.806;2023-08-21T14:33:30;29.51;68.51
65378;SHT31;51982;51.042;13.806;2023-08-21T14:35:55;29.54;68.63
65378;SHT31;51982;51.042;13.806;2023-08-21T14:38:22;29.54;68.78
65378;SHT31;51982;51.042;13.806;2023-08-21T14:40:47;29.50;68.49
65378;SHT31;51982;51.042;13.806;2023-08-21T14:43:13;29.47;68.43
65378;SHT31;51982;51.042;13.806;2023-08-21T14:45:38;29.47;68.51
65378;SHT31;51982;51.042;13.806;2023-08-21T14:48:03;29.50;68.48
65378;SHT31;51982;51.042;13.806;2023-08-21T14:50:29;29.51;68.43
65378;SHT31;51982;51.042;13.806;2023-08-21T14:52:54;29.51;68.45
65378;SHT31;51982;51.042;13.806;2023-08-21T14:55:19;29.57;68.30
65378;SHT31;51982;51.042;13.806;2023-08-21T14:57:44;29.63;68.47
65378;SHT31;51982;51.042;13.806;2023-08-21T15:00:10;29.70;68.54
65378;SHT31;51982;51.042;13.806;2023-08-21T15:02:36;29.73;67.86
65378;SHT31;51982;51.042;13.806;2023-08-21T15:05:02;29.73;67.65
65378;SHT31;51982;51.042;13.806;2023-08-21T15:07:30;29.71;67.90
65378;SHT31;51982;51.042;13.806;2023-08-21T15:09:55;29.71;67.96